Eastaboga, Alabama
Current Conditions -  °F | °C
As of 4:15 PM on Wednesday 28 Jan 2015 (Local Time) from KASN Reporting Station
Clear Clear  
Wind Chill: 57°   Ceiling: Unl
Heat Index: 57°   Visibility: 10mi
Dew Point: 25°   Wind: 0mph
Humidity: 29%   Direction: NA
Pressure: 30.24"   Gusts: NA
Location:  33.61°N, 86.02°W
Report Text: KASN 282215Z AUTO 00000KT 10SM CLR 14/M04 A3024 RMK AO2 T01401037
Loading
Personal Weather Stations






























Interactive Weather Map New forecast layout! Learn more

10-Day Weather Forecast

Advertisements
Track Severe Weather on mobile